Meishomaru — JD3044 — position and weather

sailwx.info

Track history (hours):
 
Tides and Currents Weather Stations Pressure Air Temp Water Temp Dewpoint Dewpoint Depression Visibility Wind Speed Wind Dir Waves Ship Positions

Meishomaru

Last reported at 2016-Aug-25 09:24 UTC. Time now 2016-Aug-25 20:10 UTC.
Position N 34°37' E 134°57'.

Length 68 m; draft 3.8 m.

Type: Tanker. MMSI: 431001216.

Date/timePositionNaut miles runAvg speedWind from/ knotsBaromVisibWave heightAir tempDewpointWater temp
2016-Aug-25 09:24N 34°37' E 134°57'8 9.5
2016-Aug-25 08:34N 34°32' E 135°05'1613.0
2016-Aug-25 07:19N 34°17' E 134°59'1012.8
2016-Aug-25 06:33N 34°07' E 135°01'24210.1
2016-Aug-24 06:33N 35°11' E 139°45'2110.3
2016-Aug-24 04:33N 35°30' E 139°54'8 7.7
2016-Aug-24 03:31N 35°32' E 140°03'0 0.0
2016-Aug-24 02:31N 35°32' E 140°03'0 0.0
2016-Aug-24 01:28N 35°32' E 140°03'0 0.0
2016-Aug-24 00:31N 35°32' E 140°03'1 0.7
2016-Aug-23 23:33N 35°32' E 140°03'6 6.3
2016-Aug-23 22:33N 35°32' E 139°55'0 0.0
2016-Aug-23 21:30N 35°32' E 139°55'0 0.0
2016-Aug-23 20:30N 35°32' E 139°55'0 0.0
2016-Aug-23 19:30N 35°32' E 139°55'0 0.0
2016-Aug-23 18:33N 35°32' E 139°55'0 0.0
2016-Aug-23 17:33N 35°32' E 139°55'0 0.0
2016-Aug-23 16:33N 35°32' E 139°55'0 0.0
2016-Aug-23 15:30N 35°32' E 139°55'0 0.0
2016-Aug-23 14:30N 35°32' E 139°55'6 5.9
2016-Aug-23 13:33N 35°28' E 139°51'1111.0
2016-Aug-23 12:33N 35°18' E 139°45'1111.4
2016-Aug-23 11:33N 35°06' E 139°45'1211.6
2016-Aug-23 10:32N 34°54' E 139°46'19 9.3
2016-Aug-23 08:31N 34°59' E 140°08'2311.4
2016-Aug-23 06:27N 35°13' E 140°30'1112.4
2016-Aug-23 05:33N 35°23' E 140°39'1411.5
2016-Aug-23 04:18N 35°34' E 140°49'23 8.2
2016-Aug-23 01:28N 35°57' E 140°43'3 0.1
2016-Aug-20 23:32N 35°53' E 140°41'4 3.8
2016-Aug-20 22:28N 35°57' E 140°42'0 0.0
2016-Aug-20 20:31N 35°57' E 140°42'0 0.0
2016-Aug-20 19:25N 35°57' E 140°42'1 1.4
2016-Aug-20 18:33N 35°58' E 140°43'1110.9
2016-Aug-20 17:33N 35°49' E 140°51'1010.0
2016-Aug-20 16:31N 35°39' E 140°54'1111.6
2016-Aug-20 15:33N 35°31' E 140°46'1311.9
2016-Aug-20 14:30N 35°20' E 140°37'1111.2
2016-Aug-20 13:30N 35°11' E 140°28'1111.8
2016-Aug-20 12:33N 35°04' E 140°18'1211.7
2016-Aug-20 11:32N 34°58' E 140°06'1410.6
2016-Aug-20 10:10N 34°53' E 139°49'810.8
2016-Aug-20 09:26N 34°59' E 139°43'1011.3
2016-Aug-20 08:33N 35°09' E 139°45'1111.4
2016-Aug-20 07:34N 35°20' E 139°43'1111.5
2016-Aug-20 06:33N 35°29' E 139°51'6 5.7
2016-Aug-20 05:32N 35°34' E 139°54'0 0.0
2016-Aug-20 04:32N 35°34' E 139°54'0 0.1
2016-Aug-20 03:32N 35°34' E 139°54'0 0.0
2016-Aug-20 02:32N 35°34' E 139°54'0 0.0
2016-Aug-20 01:32N 35°34' E 139°54'0 0.0
2016-Aug-20 00:26N 35°34' E 139°54'0 0.0
2016-Aug-19 23:32N 35°34' E 139°54'0 0.0
2016-Aug-19 22:32N 35°34' E 139°54'0 0.0
2016-Aug-19 21:32N 35°34' E 139°54'0 0.0
2016-Aug-19 20:32N 35°34' E 139°54'0 0.0
2016-Aug-19 19:29N 35°34' E 139°54'0 0.0
2016-Aug-19 18:26N 35°34' E 139°54'0 0.0
2016-Aug-19 17:32N 35°34' E 139°54'0 0.0
2016-Aug-19 16:29N 35°34' E 139°54'0 0.0
2016-Aug-19 15:23N 35°34' E 139°54'0 0.0
2016-Aug-19 14:32N 35°34' E 139°54'0 0.0
2016-Aug-19 13:32N 35°34' E 139°54'0 0.0
2016-Aug-19 12:32N 35°34' E 139°54'0 0.0
2016-Aug-19 11:29N 35°34' E 139°54'0 0.0
2016-Aug-19 10:32N 35°34' E 139°54'0 0.0
2016-Aug-19 09:32N 35°34' E 139°54'0 0.0
2016-Aug-19 08:32N 35°34' E 139°54'0 0.0
2016-Aug-19 07:29N 35°34' E 139°54'0 0.0
2016-Aug-19 06:32N 35°34' E 139°54'0 0.0
2016-Aug-19 05:29N 35°34' E 139°54'4 4.8
2016-Aug-19 04:34N 35°33' E 139°60'3 3.1
2016-Aug-19 03:29N 35°32' E 140°03'0 0.0
2016-Aug-19 02:32N 35°32' E 140°03'0 0.0
2016-Aug-19 01:32N 35°32' E 140°03'0 0.0
2016-Aug-19 00:32N 35°32' E 140°03'2 2.3
2016-Aug-18 23:33N 35°32' E 140°01'5 4.6
2016-Aug-18 22:31N 35°33' E 139°55'0 0.0
2016-Aug-18 21:28N 35°33' E 139°55'0 0.0
2016-Aug-18 20:31N 35°33' E 139°55'0 0.0
2016-Aug-18 19:31N 35°33' E 139°55'0 0.0
2016-Aug-18 18:25N 35°33' E 139°55'0 0.0
2016-Aug-18 17:22N 35°33' E 139°55'0 0.0
2016-Aug-18 16:31N 35°33' E 139°55'0 0.0
2016-Aug-18 15:31N 35°33' E 139°55'0 0.0
2016-Aug-18 14:34N 35°33' E 139°55'1110.8
2016-Aug-18 13:34N 35°24' E 139°47'1111.1
2016-Aug-18 12:34N 35°13' E 139°47'1212.0
2016-Aug-18 11:34N 35°02' E 139°41'  
Track history (hours):
 
Tides and Currents Weather Stations Pressure Air Temp Water Temp Dewpoint Dewpoint Depression Visibility Wind Speed Wind Dir Waves Ship Positions

Meishomaru

Last reported at 2016-Aug-25 09:24 UTC. Time now 2016-Aug-25 20:10 UTC.
Position N 34°37' E 134°57'.

Length 68 m; draft 3.8 m.

Type: Tanker. MMSI: 431001216.

Date/timePositionNaut miles runAvg speedWind from/ knotsBaromVisibWave heightAir tempDewpointWater temp
2016-Aug-25 09:24N 34°37' E 134°57'8 9.5
2016-Aug-25 08:34N 34°32' E 135°05'1613.0
2016-Aug-25 07:19N 34°17' E 134°59'1012.8
2016-Aug-25 06:33N 34°07' E 135°01'24210.1
2016-Aug-24 06:33N 35°11' E 139°45'2110.3
2016-Aug-24 04:33N 35°30' E 139°54'8 7.7
2016-Aug-24 03:31N 35°32' E 140°03'0 0.0
2016-Aug-24 02:31N 35°32' E 140°03'0 0.0
2016-Aug-24 01:28N 35°32' E 140°03'0 0.0
2016-Aug-24 00:31N 35°32' E 140°03'1 0.7
2016-Aug-23 23:33N 35°32' E 140°03'6 6.3
2016-Aug-23 22:33N 35°32' E 139°55'0 0.0
2016-Aug-23 21:30N 35°32' E 139°55'0 0.0
2016-Aug-23 20:30N 35°32' E 139°55'0 0.0
2016-Aug-23 19:30N 35°32' E 139°55'0 0.0
2016-Aug-23 18:33N 35°32' E 139°55'0 0.0
2016-Aug-23 17:33N 35°32' E 139°55'0 0.0
2016-Aug-23 16:33N 35°32' E 139°55'0 0.0
2016-Aug-23 15:30N 35°32' E 139°55'0 0.0
2016-Aug-23 14:30N 35°32' E 139°55'6 5.9
2016-Aug-23 13:33N 35°28' E 139°51'1111.0
2016-Aug-23 12:33N 35°18' E 139°45'1111.4
2016-Aug-23 11:33N 35°06' E 139°45'1211.6
2016-Aug-23 10:32N 34°54' E 139°46'19 9.3
2016-Aug-23 08:31N 34°59' E 140°08'2311.4
2016-Aug-23 06:27N 35°13' E 140°30'1112.4
2016-Aug-23 05:33N 35°23' E 140°39'1411.5
2016-Aug-23 04:18N 35°34' E 140°49'23 8.2
2016-Aug-23 01:28N 35°57' E 140°43'3 0.1
2016-Aug-20 23:32N 35°53' E 140°41'4 3.8
2016-Aug-20 22:28N 35°57' E 140°42'0 0.0
2016-Aug-20 20:31N 35°57' E 140°42'0 0.0
2016-Aug-20 19:25N 35°57' E 140°42'1 1.4
2016-Aug-20 18:33N 35°58' E 140°43'1110.9
2016-Aug-20 17:33N 35°49' E 140°51'1010.0
2016-Aug-20 16:31N 35°39' E 140°54'1111.6
2016-Aug-20 15:33N 35°31' E 140°46'1311.9
2016-Aug-20 14:30N 35°20' E 140°37'1111.2
2016-Aug-20 13:30N 35°11' E 140°28'1111.8
2016-Aug-20 12:33N 35°04' E 140°18'1211.7
2016-Aug-20 11:32N 34°58' E 140°06'1410.6
2016-Aug-20 10:10N 34°53' E 139°49'810.8
2016-Aug-20 09:26N 34°59' E 139°43'1011.3
2016-Aug-20 08:33N 35°09' E 139°45'1111.4
2016-Aug-20 07:34N 35°20' E 139°43'1111.5
2016-Aug-20 06:33N 35°29' E 139°51'6 5.7
2016-Aug-20 05:32N 35°34' E 139°54'0 0.0
2016-Aug-20 04:32N 35°34' E 139°54'0 0.1
2016-Aug-20 03:32N 35°34' E 139°54'0 0.0
2016-Aug-20 02:32N 35°34' E 139°54'0 0.0
2016-Aug-20 01:32N 35°34' E 139°54'0 0.0
2016-Aug-20 00:26N 35°34' E 139°54'0 0.0
2016-Aug-19 23:32N 35°34' E 139°54'0 0.0
2016-Aug-19 22:32N 35°34' E 139°54'0 0.0
2016-Aug-19 21:32N 35°34' E 139°54'0 0.0
2016-Aug-19 20:32N 35°34' E 139°54'0 0.0
2016-Aug-19 19:29N 35°34' E 139°54'0 0.0
2016-Aug-19 18:26N 35°34' E 139°54'0 0.0
2016-Aug-19 17:32N 35°34' E 139°54'0 0.0
2016-Aug-19 16:29N 35°34' E 139°54'0 0.0
2016-Aug-19 15:23N 35°34' E 139°54'0 0.0
2016-Aug-19 14:32N 35°34' E 139°54'0 0.0
2016-Aug-19 13:32N 35°34' E 139°54'0 0.0
2016-Aug-19 12:32N 35°34' E 139°54'0 0.0
2016-Aug-19 11:29N 35°34' E 139°54'0 0.0
2016-Aug-19 10:32N 35°34' E 139°54'0 0.0
2016-Aug-19 09:32N 35°34' E 139°54'0 0.0
2016-Aug-19 08:32N 35°34' E 139°54'0 0.0
2016-Aug-19 07:29N 35°34' E 139°54'0 0.0
2016-Aug-19 06:32N 35°34' E 139°54'0 0.0
2016-Aug-19 05:29N 35°34' E 139°54'4 4.8
2016-Aug-19 04:34N 35°33' E 139°60'3 3.1
2016-Aug-19 03:29N 35°32' E 140°03'0 0.0
2016-Aug-19 02:32N 35°32' E 140°03'0 0.0
2016-Aug-19 01:32N 35°32' E 140°03'0 0.0
2016-Aug-19 00:32N 35°32' E 140°03'2 2.3
2016-Aug-18 23:33N 35°32' E 140°01'5 4.6
2016-Aug-18 22:31N 35°33' E 139°55'0 0.0
2016-Aug-18 21:28N 35°33' E 139°55'0 0.0
2016-Aug-18 20:31N 35°33' E 139°55'0 0.0
2016-Aug-18 19:31N 35°33' E 139°55'0 0.0
2016-Aug-18 18:25N 35°33' E 139°55'0 0.0
2016-Aug-18 17:22N 35°33' E 139°55'0 0.0
2016-Aug-18 16:31N 35°33' E 139°55'0 0.0
2016-Aug-18 15:31N 35°33' E 139°55'0 0.0
2016-Aug-18 14:34N 35°33' E 139°55'1110.8
2016-Aug-18 13:34N 35°24' E 139°47'1111.1
2016-Aug-18 12:34N 35°13' E 139°47'1212.0
2016-Aug-18 11:34N 35°02' E 139°41'  

Dump ship's entire track history